createdAt,value
2023-07-20T00:01:46.281Z,19.64
2023-07-20T00:04:18.780Z,19.58
2023-07-20T00:06:51.339Z,19.53
2023-07-20T00:09:23.950Z,19.47
2023-07-20T00:11:56.781Z,19.44
2023-07-20T00:14:29.289Z,19.41
2023-07-20T00:17:01.727Z,19.39
2023-07-20T00:19:34.347Z,19.35
2023-07-20T00:22:07.654Z,19.32
2023-07-20T00:24:40.547Z,19.26
2023-07-20T00:27:13.018Z,19.21
2023-07-20T00:29:45.486Z,19.16
2023-07-20T00:32:18.227Z,19.11
2023-07-20T00:34:50.561Z,19.07
2023-07-20T00:37:22.940Z,19.04
2023-07-20T00:39:55.733Z,19.03
2023-07-20T00:42:28.544Z,19.00
2023-07-20T00:45:01.366Z,19.00
2023-07-20T00:47:35.689Z,18.99
2023-07-20T00:50:12.619Z,18.98
2023-07-20T00:52:45.709Z,18.98
2023-07-20T00:55:18.752Z,18.96
2023-07-20T00:57:51.892Z,18.92
2023-07-20T01:00:24.592Z,18.89
2023-07-20T01:02:57.238Z,18.89
2023-07-20T01:05:40.734Z,18.91
2023-07-20T01:08:24.185Z,18.90
2023-07-20T01:11:01.428Z,18.86
2023-07-20T01:13:34.605Z,18.85
2023-07-20T01:16:07.473Z,18.86
2023-07-20T01:18:40.765Z,18.86
2023-07-20T01:21:20.642Z,18.86
2023-07-20T01:24:20.001Z,18.84
2023-07-20T01:27:11.697Z,18.82
2023-07-20T01:30:05.982Z,18.81
2023-07-20T01:32:40.845Z,18.80
2023-07-20T01:35:16.640Z,18.75
2023-07-20T01:37:50.362Z,18.76
2023-07-20T01:40:26.422Z,18.75
2023-07-20T01:42:59.102Z,18.74
2023-07-20T01:45:31.903Z,18.72
2023-07-20T01:48:04.787Z,18.70
2023-07-20T01:50:37.206Z,18.69
2023-07-20T01:53:09.496Z,18.66
2023-07-20T01:55:42.614Z,18.64
2023-07-20T01:58:15.192Z,18.63
2023-07-20T02:00:47.936Z,18.62
2023-07-20T02:03:20.259Z,18.58
2023-07-20T02:05:52.783Z,18.56
2023-07-20T02:08:25.343Z,18.57
2023-07-20T02:10:57.770Z,18.59
2023-07-20T02:13:30.543Z,18.57
2023-07-20T02:16:03.343Z,18.54
2023-07-20T02:18:36.506Z,18.53
2023-07-20T02:21:08.902Z,18.53
2023-07-20T02:23:41.288Z,18.53
2023-07-20T02:26:13.665Z,18.51
2023-07-20T02:28:46.200Z,18.49
2023-07-20T02:31:19.110Z,18.45
2023-07-20T02:33:51.687Z,18.43
2023-07-20T02:36:24.640Z,18.44
2023-07-20T02:38:57.556Z,18.44
2023-07-20T02:41:30.021Z,18.44
2023-07-20T02:44:03.220Z,18.42
2023-07-20T02:46:36.662Z,18.40
2023-07-20T02:49:09.316Z,18.40
2023-07-20T02:51:42.038Z,18.41
2023-07-20T02:54:14.679Z,18.42
2023-07-20T02:56:47.185Z,18.42
2023-07-20T02:59:20.011Z,18.43
2023-07-20T03:01:52.653Z,18.44
2023-07-20T03:04:26.105Z,18.46
2023-07-20T03:06:58.565Z,18.46
2023-07-20T03:09:30.916Z,18.45
2023-07-20T03:12:06.177Z,18.46
2023-07-20T03:14:38.797Z,18.48
2023-07-20T03:17:11.333Z,18.49
2023-07-20T03:19:44.530Z,18.51
2023-07-20T03:22:17.214Z,18.54
2023-07-20T03:24:49.637Z,18.59
2023-07-20T03:27:21.903Z,18.63
2023-07-20T03:29:54.685Z,18.61
2023-07-20T03:32:27.184Z,18.59
2023-07-20T03:34:59.496Z,18.57
2023-07-20T03:37:32.455Z,18.58
2023-07-20T03:40:06.014Z,18.57
2023-07-20T03:42:39.888Z,18.58
2023-07-20T03:45:14.795Z,18.59
2023-07-20T03:47:49.617Z,18.62
2023-07-20T03:50:22.400Z,18.62
2023-07-20T03:52:55.261Z,18.57
2023-07-20T03:55:27.670Z,18.55
2023-07-20T03:58:00.371Z,18.54
2023-07-20T04:00:32.735Z,18.53
2023-07-20T04:03:05.377Z,18.55
2023-07-20T04:05:37.922Z,18.55
2023-07-20T04:08:10.435Z,18.58
2023-07-20T04:10:45.570Z,18.60
2023-07-20T04:13:18.158Z,18.59
2023-07-20T04:15:50.526Z,18.60
2023-07-20T04:18:23.137Z,18.62
2023-07-20T04:20:55.525Z,18.66
2023-07-20T04:23:28.224Z,18.68
2023-07-20T04:26:01.796Z,18.72
2023-07-20T04:28:35.066Z,18.74
2023-07-20T04:31:17.954Z,18.76
2023-07-20T04:33:50.669Z,18.76
2023-07-20T04:36:24.080Z,18.72
2023-07-20T04:38:58.151Z,18.72
2023-07-20T04:41:31.969Z,18.67
2023-07-20T04:44:06.271Z,18.65
2023-07-20T04:46:38.817Z,18.62
2023-07-20T04:49:13.865Z,18.56
2023-07-20T04:51:49.057Z,18.55
2023-07-20T04:54:22.975Z,18.62
2023-07-20T04:56:55.791Z,18.66
2023-07-20T04:59:28.882Z,18.70
2023-07-20T05:02:01.715Z,18.74
2023-07-20T05:04:38.959Z,18.76
2023-07-20T05:07:12.471Z,18.80
2023-07-20T05:09:45.100Z,18.84
2023-07-20T05:12:19.853Z,18.86
2023-07-20T05:14:53.249Z,18.88
2023-07-20T05:17:25.964Z,18.92
2023-07-20T05:19:58.796Z,18.94
2023-07-20T05:22:31.880Z,18.96
2023-07-20T05:25:04.446Z,18.98
2023-07-20T05:27:37.288Z,19.00
2023-07-20T05:30:11.561Z,18.98
2023-07-20T05:32:46.660Z,19.01
2023-07-20T05:35:19.382Z,19.04
2023-07-20T05:37:52.077Z,19.07
2023-07-20T05:40:24.821Z,19.10
2023-07-20T05:42:58.175Z,19.04
2023-07-20T05:45:30.795Z,18.94
2023-07-20T05:48:03.422Z,18.96
2023-07-20T05:50:36.104Z,18.96
2023-07-20T05:53:08.669Z,19.02
2023-07-20T05:55:41.914Z,19.04
2023-07-20T05:58:16.380Z,19.06
2023-07-20T06:00:52.035Z,19.04
2023-07-20T06:03:24.720Z,19.02
2023-07-20T06:06:02.164Z,19.07
2023-07-20T06:08:34.840Z,19.10
2023-07-20T06:11:07.256Z,19.09
2023-07-20T06:13:39.936Z,19.17
2023-07-20T06:16:12.651Z,19.28
2023-07-20T06:18:46.519Z,19.39
2023-07-20T06:21:19.134Z,19.55
2023-07-20T06:23:51.802Z,19.69
2023-07-20T06:26:24.418Z,19.81
2023-07-20T06:28:57.153Z,19.92
2023-07-20T06:31:29.874Z,19.97
2023-07-20T06:34:02.305Z,20.02
2023-07-20T06:36:35.081Z,20.13
2023-07-20T06:41:44.110Z,20.23
2023-07-20T06:44:17.938Z,20.24
2023-07-20T06:46:50.556Z,20.23
2023-07-20T06:49:29.647Z,20.21
2023-07-20T06:52:02.460Z,20.27
2023-07-20T06:54:36.287Z,20.33
2023-07-20T06:59:47.630Z,20.41
2023-07-20T07:07:33.305Z,20.44
2023-07-20T07:10:06.900Z,20.49
2023-07-20T07:12:40.429Z,20.53
2023-07-20T07:15:14.155Z,20.59
2023-07-20T07:17:46.578Z,20.69
2023-07-20T07:20:21.439Z,20.84
2023-07-20T07:22:54.539Z,21.03
2023-07-20T07:25:28.177Z,21.22
2023-07-20T07:28:00.811Z,21.38
2023-07-20T07:30:34.644Z,21.49
2023-07-20T07:33:07.685Z,21.52
2023-07-20T07:35:40.851Z,21.54
2023-07-20T07:38:26.759Z,21.61
2023-07-20T07:41:05.735Z,21.66
2023-07-20T07:43:39.600Z,21.69
2023-07-20T07:46:11.999Z,21.79
2023-07-20T07:48:44.365Z,21.81
2023-07-20T07:51:17.215Z,21.76
2023-07-20T07:53:50.650Z,21.81
2023-07-20T07:56:24.723Z,21.87
2023-07-20T07:58:57.964Z,21.94
2023-07-20T08:01:30.348Z,21.99
2023-07-20T08:04:03.136Z,22.00
2023-07-20T08:06:35.556Z,21.93
2023-07-20T08:09:08.097Z,21.83
2023-07-20T08:11:43.086Z,21.69
2023-07-20T08:14:16.550Z,21.56
2023-07-20T08:16:49.102Z,21.45
2023-07-20T08:19:21.954Z,21.31
2023-07-20T08:21:54.490Z,21.22
2023-07-20T08:24:27.224Z,21.11
2023-07-20T08:26:59.686Z,21.11
2023-07-20T08:29:32.384Z,21.25
2023-07-20T08:32:05.602Z,21.34
2023-07-20T08:34:38.028Z,21.42
2023-07-20T08:37:11.377Z,21.40
2023-07-20T08:39:44.053Z,21.35
2023-07-20T08:42:19.149Z,21.32
2023-07-20T08:44:52.636Z,21.30
2023-07-20T08:47:27.625Z,21.29
2023-07-20T08:50:01.364Z,21.28
2023-07-20T08:52:35.608Z,21.30
2023-07-20T08:55:09.166Z,21.30
2023-07-20T08:57:43.905Z,21.34
2023-07-20T09:00:15.928Z,21.40
2023-07-20T09:02:50.379Z,21.48
2023-07-20T09:05:25.854Z,21.54
2023-07-20T09:07:59.215Z,21.50
2023-07-20T09:10:31.780Z,21.51
2023-07-20T09:13:04.152Z,21.52
2023-07-20T09:15:36.954Z,21.52
2023-07-20T09:18:09.557Z,21.53
2023-07-20T09:20:43.241Z,21.55
2023-07-20T09:23:16.028Z,21.51
2023-07-20T09:25:52.037Z,21.51
2023-07-20T09:28:24.414Z,21.54
2023-07-20T09:30:59.815Z,21.60
2023-07-20T09:33:32.274Z,21.66
2023-07-20T09:36:23.981Z,21.71
2023-07-20T09:41:46.377Z,21.84
2023-07-20T09:47:00.095Z,22.23
2023-07-20T09:50:26.192Z,22.42
2023-07-20T09:55:03.355Z,22.77
2023-07-20T09:57:37.080Z,22.83
2023-07-20T10:02:52.313Z,22.94
2023-07-20T10:05:26.868Z,22.96
2023-07-20T10:10:34.529Z,23.05
2023-07-20T10:13:08.183Z,23.27
2023-07-20T10:15:44.895Z,23.56
2023-07-20T10:18:25.652Z,23.85
2023-07-20T10:23:35.756Z,24.17
2023-07-20T10:26:09.741Z,24.36
2023-07-20T10:28:42.661Z,24.47
2023-07-20T10:31:17.808Z,24.45
2023-07-20T10:33:51.867Z,24.44
2023-07-20T10:36:31.955Z,24.46
2023-07-20T10:39:04.769Z,24.43
2023-07-20T10:41:41.841Z,24.46
2023-07-20T10:44:14.688Z,24.55
2023-07-20T10:46:48.889Z,24.57
2023-07-20T10:49:27.761Z,24.64
2023-07-20T10:52:06.550Z,24.84
2023-07-20T10:54:51.163Z,25.09
2023-07-20T10:57:34.155Z,25.19
2023-07-20T11:00:24.014Z,25.22
2023-07-20T11:03:02.226Z,25.25
2023-07-20T11:05:41.108Z,25.24
2023-07-20T11:08:36.955Z,25.15
2023-07-20T11:11:28.582Z,24.95
2023-07-20T11:14:03.327Z,24.96
2023-07-20T11:16:46.179Z,25.13
2023-07-20T11:22:03.503Z,25.60
2023-07-20T11:24:37.021Z,25.79
2023-07-20T11:27:09.738Z,25.95
2023-07-20T11:29:42.112Z,26.12
2023-07-20T11:32:14.557Z,26.24
2023-07-20T11:34:51.050Z,26.41
2023-07-20T11:37:24.187Z,26.56
2023-07-20T11:40:00.350Z,26.74
2023-07-20T11:45:09.837Z,26.88
2023-07-20T11:47:45.167Z,27.01
2023-07-20T11:50:17.662Z,27.15
2023-07-20T11:52:50.708Z,27.27
2023-07-20T11:55:24.379Z,27.36
2023-07-20T11:58:10.002Z,27.36
2023-07-20T12:00:46.384Z,27.40
2023-07-20T12:03:20.229Z,27.52
2023-07-20T12:06:01.747Z,27.63
2023-07-20T12:08:34.999Z,27.66
2023-07-20T12:11:07.371Z,27.62
2023-07-20T12:13:47.893Z,27.69
2023-07-20T12:16:20.567Z,27.57
2023-07-20T12:19:01.147Z,27.42
2023-07-20T12:21:34.117Z,27.22
2023-07-20T12:24:07.473Z,26.97
2023-07-20T12:26:40.069Z,26.64
2023-07-20T12:29:12.453Z,26.33
2023-07-20T12:31:45.111Z,26.09
2023-07-20T12:34:17.752Z,25.94
2023-07-20T12:36:50.221Z,25.86
2023-07-20T12:39:22.879Z,25.92
2023-07-20T12:41:55.267Z,25.99
2023-07-20T12:44:28.144Z,26.01
2023-07-20T12:47:00.673Z,26.07
2023-07-20T12:49:33.117Z,26.04
2023-07-20T12:52:05.687Z,25.96
2023-07-20T12:54:38.195Z,25.87
2023-07-20T12:57:13.566Z,25.75
2023-07-20T12:59:46.034Z,25.62
2023-07-20T13:02:18.702Z,25.59
2023-07-20T13:04:51.062Z,25.67
2023-07-20T13:10:11.982Z,25.77
2023-07-20T13:12:44.498Z,25.73
2023-07-20T13:15:17.146Z,25.59
2023-07-20T13:17:50.389Z,25.43
2023-07-20T13:20:23.051Z,25.17
2023-07-20T13:22:55.495Z,24.86
2023-07-20T13:25:29.936Z,24.53
2023-07-20T13:28:02.701Z,24.09
2023-07-20T13:30:35.243Z,23.65
2023-07-20T13:33:07.891Z,23.30
2023-07-20T13:38:17.067Z,22.77
2023-07-20T13:40:50.478Z,22.51
2023-07-20T13:43:23.235Z,22.28
2023-07-20T13:45:55.658Z,22.03
2023-07-20T13:48:28.789Z,21.91
2023-07-20T13:51:01.802Z,21.80
2023-07-20T13:58:45.184Z,21.41
2023-07-20T14:01:29.407Z,21.34
2023-07-20T14:04:04.980Z,21.29
2023-07-20T14:06:38.179Z,21.22
2023-07-20T14:09:10.694Z,21.16
2023-07-20T14:14:19.626Z,21.19
2023-07-20T14:16:52.229Z,21.12
2023-07-20T14:19:24.600Z,21.14
2023-07-20T14:22:00.157Z,21.10
2023-07-20T14:24:32.888Z,21.06
2023-07-20T14:27:05.559Z,21.06
2023-07-20T14:29:38.108Z,21.07
2023-07-20T14:32:11.685Z,21.09
2023-07-20T14:37:17.471Z,21.28
2023-07-20T14:39:50.612Z,21.41
2023-07-20T14:42:23.067Z,21.50
2023-07-20T14:44:56.309Z,21.60
2023-07-20T14:47:29.205Z,21.67
2023-07-20T14:50:01.571Z,21.69
2023-07-20T14:52:33.997Z,21.70
2023-07-20T14:55:08.744Z,21.70
2023-07-20T14:57:41.525Z,21.65
2023-07-20T15:00:16.962Z,21.65
2023-07-20T15:02:49.727Z,21.77
2023-07-20T15:05:27.862Z,21.88
2023-07-20T15:08:00.655Z,21.94
2023-07-20T15:10:33.844Z,22.01
2023-07-20T15:13:06.551Z,22.12
2023-07-20T15:15:38.994Z,22.21
2023-07-20T15:18:11.773Z,22.22
2023-07-20T15:20:44.537Z,22.22
2023-07-20T15:23:17.252Z,22.24
2023-07-20T15:25:49.595Z,22.27
2023-07-20T15:28:21.852Z,22.32
2023-07-20T15:31:03.451Z,22.31
2023-07-20T15:33:36.381Z,22.29
2023-07-20T15:36:10.677Z,22.30
2023-07-20T15:38:43.883Z,22.25
2023-07-20T15:41:27.187Z,22.27
2023-07-20T15:44:04.023Z,22.29
2023-07-20T15:46:51.231Z,22.28
2023-07-20T15:49:25.738Z,22.28
2023-07-20T15:51:58.903Z,22.32
2023-07-20T15:54:35.611Z,22.36
2023-07-20T15:57:13.768Z,22.38
2023-07-20T15:59:47.900Z,22.40
2023-07-20T16:02:21.664Z,22.39
2023-07-20T16:05:14.216Z,22.39
2023-07-20T16:07:49.942Z,22.39
2023-07-20T16:10:25.585Z,22.38
2023-07-20T16:12:59.037Z,22.38
2023-07-20T16:18:16.564Z,22.36
2023-07-20T16:20:51.348Z,22.37
2023-07-20T16:23:23.816Z,22.37
2023-07-20T16:25:56.742Z,22.36
2023-07-20T16:28:29.483Z,22.31
2023-07-20T16:31:02.347Z,22.25
2023-07-20T16:33:34.700Z,22.16
2023-07-20T16:36:10.327Z,22.13
2023-07-20T16:38:44.368Z,22.10
2023-07-20T16:42:02.033Z,22.06
2023-07-20T16:44:09.636Z,22.00
2023-07-20T16:49:17.629Z,21.86
2023-07-20T16:51:50.111Z,21.82
2023-07-20T16:54:22.698Z,21.78
2023-07-20T16:56:55.177Z,21.78
2023-07-20T16:59:27.741Z,21.80
2023-07-20T17:02:00.591Z,21.77
2023-07-20T17:04:33.159Z,21.72
2023-07-20T17:07:06.834Z,21.64
2023-07-20T17:09:40.138Z,21.57
2023-07-20T17:12:14.680Z,21.58
2023-07-20T17:14:47.362Z,21.52
2023-07-20T17:17:21.879Z,21.49
2023-07-20T17:20:52.243Z,21.42
2023-07-20T17:22:45.435Z,21.33
2023-07-20T17:30:30.248Z,21.22
2023-07-20T17:33:02.680Z,21.21
2023-07-20T17:35:35.664Z,21.19
2023-07-20T17:40:43.884Z,21.17
2023-07-20T17:43:16.562Z,21.18
2023-07-20T17:45:51.947Z,21.20
2023-07-20T17:48:24.396Z,21.21
2023-07-20T17:50:57.849Z,21.22
2023-07-20T17:53:30.508Z,21.20
2023-07-20T17:56:03.572Z,21.15
2023-07-20T17:58:36.118Z,21.08
2023-07-20T18:01:08.795Z,21.04
2023-07-20T18:03:41.485Z,20.99
2023-07-20T18:06:13.899Z,20.97
2023-07-20T18:08:46.553Z,20.94
2023-07-20T18:11:20.267Z,20.90
2023-07-20T18:13:52.988Z,20.86
2023-07-20T18:16:25.395Z,20.80
2023-07-20T18:18:59.073Z,20.75
2023-07-20T18:21:31.958Z,20.72
2023-07-20T18:24:04.928Z,20.71
2023-07-20T18:26:37.404Z,20.70
2023-07-20T18:29:10.200Z,20.69
2023-07-20T18:31:43.174Z,20.68
2023-07-20T18:34:15.998Z,20.66
2023-07-20T18:36:48.988Z,20.61
2023-07-20T18:39:21.391Z,20.56
2023-07-20T18:41:54.443Z,20.54
2023-07-20T18:44:27.966Z,20.51
2023-07-20T18:47:02.509Z,20.49
2023-07-20T18:49:33.449Z,20.44
2023-07-20T18:52:06.883Z,20.38
2023-07-20T18:54:39.260Z,20.34
2023-07-20T18:57:11.691Z,20.29
2023-07-20T18:59:45.297Z,20.24
2023-07-20T19:02:18.062Z,20.19
2023-07-20T19:04:50.569Z,20.14
2023-07-20T19:07:23.008Z,20.12
2023-07-20T19:09:55.626Z,20.08
2023-07-20T19:12:28.010Z,20.05
2023-07-20T19:15:01.539Z,20.02
2023-07-20T19:17:34.186Z,19.99
2023-07-20T19:20:08.186Z,19.93
2023-07-20T19:22:40.889Z,19.91
2023-07-20T19:25:13.844Z,19.80
2023-07-20T19:27:46.402Z,19.70
2023-07-20T19:30:19.044Z,19.64
2023-07-20T19:32:52.516Z,19.62
2023-07-20T19:35:25.449Z,19.63
2023-07-20T19:37:57.937Z,19.58
2023-07-20T19:40:30.639Z,19.49
2023-07-20T19:43:04.759Z,19.45
2023-07-20T19:45:37.641Z,19.40
2023-07-20T19:48:10.232Z,19.36
2023-07-20T19:50:47.887Z,19.31
2023-07-20T19:56:05.171Z,19.21
2023-07-20T19:58:38.337Z,19.20
2023-07-20T20:03:48.749Z,19.19
2023-07-20T20:06:21.573Z,19.16
2023-07-20T20:08:54.204Z,19.14
2023-07-20T20:11:27.480Z,19.14
2023-07-20T20:14:00.676Z,19.12
2023-07-20T20:16:34.448Z,19.10
2023-07-20T20:19:07.583Z,19.06
2023-07-20T20:21:40.045Z,19.02
2023-07-20T20:24:12.934Z,18.97
2023-07-20T20:26:45.705Z,18.92
2023-07-20T20:29:18.271Z,18.89
2023-07-20T20:31:50.722Z,18.85
2023-07-20T20:34:23.829Z,18.82
2023-07-20T20:36:58.340Z,18.77
2023-07-20T20:39:29.464Z,18.73
2023-07-20T20:42:02.619Z,18.68
2023-07-20T20:44:37.966Z,18.66
2023-07-20T20:47:11.155Z,18.63
2023-07-20T20:49:47.292Z,18.58
2023-07-20T20:52:20.383Z,18.56
2023-07-20T20:54:53.419Z,18.54
2023-07-20T20:57:26.073Z,18.52
2023-07-20T20:59:59.461Z,18.50
2023-07-20T21:02:33.325Z,18.47
2023-07-20T21:05:07.423Z,18.41
2023-07-20T21:07:40.642Z,18.38
2023-07-20T21:10:13.443Z,18.37
2023-07-20T21:12:46.095Z,18.34
2023-07-20T21:15:19.042Z,18.32
2023-07-20T21:17:53.746Z,18.32
2023-07-20T21:20:24.862Z,18.34
2023-07-20T21:22:57.674Z,18.34
2023-07-20T21:25:31.262Z,18.31
2023-07-20T21:28:05.315Z,18.31
2023-07-20T21:30:39.531Z,18.30
2023-07-20T21:33:24.436Z,18.26
2023-07-20T21:36:06.918Z,18.23
2023-07-20T21:38:46.124Z,18.21
2023-07-20T21:41:24.853Z,18.16
2023-07-20T21:43:59.222Z,18.10
2023-07-20T21:46:32.486Z,18.08
2023-07-20T21:49:04.916Z,18.07
2023-07-20T21:51:38.033Z,18.04
2023-07-20T21:54:11.000Z,18.03
2023-07-20T21:56:43.711Z,17.99
2023-07-20T21:59:16.813Z,17.99
2023-07-20T22:01:59.712Z,17.99
2023-07-20T22:04:33.545Z,17.91
2023-07-20T22:07:15.051Z,17.84
2023-07-20T22:09:47.748Z,17.80
2023-07-20T22:12:22.887Z,17.77
2023-07-20T22:14:56.897Z,17.75
2023-07-20T22:17:29.290Z,17.73
2023-07-20T22:20:04.371Z,17.72
2023-07-20T22:22:37.149Z,17.70
2023-07-20T22:25:10.106Z,17.68
2023-07-20T22:27:42.409Z,17.69
2023-07-20T22:30:20.170Z,17.71
2023-07-20T22:32:53.083Z,17.72
2023-07-20T22:35:26.127Z,17.74
2023-07-20T22:37:58.375Z,17.75
2023-07-20T22:40:34.448Z,17.75
2023-07-20T22:43:06.877Z,17.73
2023-07-20T22:45:39.639Z,17.66
2023-07-20T22:48:12.737Z,17.61
2023-07-20T22:50:47.139Z,17.56
2023-07-20T22:53:19.743Z,17.53
2023-07-20T22:55:52.581Z,17.49
2023-07-20T22:58:25.599Z,17.44
2023-07-20T23:00:58.216Z,17.36
2023-07-20T23:03:32.379Z,17.33
2023-07-20T23:06:04.912Z,17.33
2023-07-20T23:08:37.689Z,17.33
2023-07-20T23:11:10.475Z,17.33
2023-07-20T23:13:45.653Z,17.31
2023-07-20T23:16:18.038Z,17.32
2023-07-20T23:18:50.555Z,17.31
2023-07-20T23:21:23.240Z,17.29
2023-07-20T23:23:55.764Z,17.28
2023-07-20T23:26:28.940Z,17.27
2023-07-20T23:29:04.438Z,17.26
2023-07-20T23:31:35.381Z,17.23
2023-07-20T23:34:08.214Z,17.19
2023-07-20T23:36:41.691Z,17.16
2023-07-20T23:39:14.962Z,17.15
2023-07-20T23:41:47.307Z,17.11
2023-07-20T23:44:19.897Z,17.06
2023-07-20T23:46:52.623Z,17.08
2023-07-20T23:49:25.025Z,17.07
2023-07-20T23:51:57.341Z,17.07
2023-07-20T23:54:29.664Z,17.02
2023-07-20T23:57:02.274Z,16.97
2023-07-20T23:59:35.566Z,16.97
